createdAt,value
2023-04-21T00:02:41.034Z,14.20
2023-04-21T00:06:39.955Z,13.30
2023-04-21T00:10:37.947Z,13.40
2023-04-21T00:14:35.835Z,12.80
2023-04-21T00:18:34.908Z,14.10
2023-04-21T00:22:32.896Z,15.00
2023-04-21T00:26:30.794Z,15.30
2023-04-21T00:30:28.763Z,14.40
2023-04-21T00:34:28.847Z,13.80
2023-04-21T00:38:26.768Z,13.30
2023-04-21T00:42:24.829Z,13.00
2023-04-21T00:46:22.884Z,13.10
2023-04-21T00:50:20.847Z,13.60
2023-04-21T00:54:19.775Z,12.20
2023-04-21T00:58:17.786Z,12.70
2023-04-21T01:02:15.784Z,13.00
2023-04-21T01:06:14.866Z,14.00
2023-04-21T01:10:12.712Z,13.80
2023-04-21T01:14:10.789Z,13.30
2023-04-21T01:18:08.753Z,15.10
2023-04-21T01:22:07.804Z,15.70
2023-04-21T01:26:06.702Z,15.20
2023-04-21T01:30:06.760Z,16.00
2023-04-21T01:34:04.832Z,14.80
2023-04-21T01:38:02.887Z,14.70
2023-04-21T01:42:02.683Z,16.10
2023-04-21T01:46:01.746Z,15.50
2023-04-21T01:50:01.678Z,15.00
2023-04-21T01:53:59.720Z,14.50
2023-04-21T01:57:57.661Z,16.00
2023-04-21T02:01:55.792Z,15.60
2023-04-21T02:05:54.709Z,16.10
2023-04-21T02:09:52.668Z,16.90
2023-04-21T02:13:50.660Z,15.50
2023-04-21T02:17:49.721Z,14.50
2023-04-21T02:21:49.780Z,13.80
2023-04-21T02:25:47.690Z,13.80
2023-04-21T02:29:45.632Z,13.70
2023-04-21T02:33:43.667Z,15.50
2023-04-21T02:37:41.702Z,13.50
2023-04-21T02:41:39.762Z,13.40
2023-04-21T02:45:37.617Z,15.00
2023-04-21T02:49:36.643Z,13.80
2023-04-21T02:53:36.586Z,14.60
2023-04-21T02:57:34.616Z,13.40
2023-04-21T03:01:33.590Z,13.50
2023-04-21T03:05:32.615Z,12.90
2023-04-21T03:09:30.578Z,12.30
2023-04-21T03:13:28.614Z,12.80
2023-04-21T03:17:26.592Z,12.10
2023-04-21T03:21:24.542Z,15.20
2023-04-21T03:25:22.683Z,17.10
2023-04-21T03:29:20.742Z,19.30
2023-04-21T03:33:18.622Z,21.90
2023-04-21T03:37:16.554Z,28.60
2023-04-21T03:41:14.515Z,37.40
2023-04-21T03:45:19.618Z,35.90
2023-04-21T03:49:17.603Z,36.90
2023-04-21T03:53:15.572Z,30.60
2023-04-21T03:57:13.650Z,22.80
2023-04-21T04:01:11.628Z,18.50
2023-04-21T04:05:09.670Z,16.40
2023-04-21T04:09:09.635Z,19.60
2023-04-21T04:13:07.516Z,15.10
2023-04-21T04:17:07.577Z,10.90
2023-04-21T04:21:05.464Z,10.70
2023-04-21T04:25:03.550Z,8.80
2023-04-21T04:29:02.503Z,10.10
2023-04-21T04:33:00.639Z,8.60
2023-04-21T04:36:58.583Z,7.30
2023-04-21T04:40:56.472Z,7.60
2023-04-21T04:44:54.699Z,7.50
2023-04-21T04:48:52.486Z,7.40
2023-04-21T04:52:54.458Z,6.50
2023-04-21T04:56:52.523Z,6.70
2023-04-21T05:00:50.417Z,6.60
2023-04-21T05:04:51.539Z,6.70
2023-04-21T05:08:49.443Z,6.90
2023-04-21T05:12:47.432Z,6.40
2023-04-21T05:16:45.483Z,6.80
2023-04-21T05:20:43.469Z,5.80
2023-04-21T05:24:41.396Z,6.60
2023-04-21T05:28:40.479Z,6.00
2023-04-21T05:32:38.513Z,6.10
2023-04-21T05:36:37.416Z,6.20
2023-04-21T05:40:35.431Z,6.40
2023-04-21T05:44:33.403Z,6.10
2023-04-21T05:48:31.395Z,5.60
2023-04-21T05:52:31.529Z,5.60
2023-04-21T05:56:29.394Z,5.20
2023-04-21T06:00:09.993Z,5.50
2023-04-21T06:03:35.005Z,5.60
2023-04-21T06:06:58.961Z,5.40
2023-04-21T06:10:23.142Z,5.70
2023-04-21T06:13:47.017Z,5.40
2023-04-21T06:17:10.842Z,5.80
2023-04-21T06:20:34.717Z,5.40
2023-04-21T06:23:58.756Z,5.90
2023-04-21T06:27:23.878Z,5.60
2023-04-21T06:30:47.662Z,5.20
2023-04-21T06:34:11.635Z,5.40
2023-04-21T06:37:35.448Z,5.90
2023-04-21T06:40:59.602Z,5.70
2023-04-21T06:44:23.570Z,5.70
2023-04-21T06:47:47.605Z,5.60
2023-04-21T06:51:11.396Z,5.50
2023-04-21T06:54:35.412Z,5.60
2023-04-21T06:57:59.308Z,5.40
2023-04-21T07:01:24.583Z,5.40
2023-04-21T07:04:50.695Z,5.20
2023-04-21T07:08:14.624Z,5.20
2023-04-21T07:11:38.822Z,4.80
2023-04-21T07:15:02.909Z,5.70
2023-04-21T07:18:26.914Z,5.10
2023-04-21T07:21:50.774Z,4.90
2023-04-21T07:25:14.646Z,4.70
2023-04-21T07:28:40.873Z,5.00
2023-04-21T07:32:04.864Z,4.90
2023-04-21T07:35:28.939Z,4.80
2023-04-21T07:38:52.756Z,4.70
2023-04-21T07:42:16.697Z,4.40
2023-04-21T07:45:40.489Z,4.70
2023-04-21T07:49:04.372Z,5.00
2023-04-21T07:52:28.340Z,4.70
2023-04-21T07:55:52.208Z,5.20
2023-04-21T07:59:16.076Z,5.30
2023-04-21T08:02:40.290Z,4.60
2023-04-21T08:06:04.970Z,4.40
2023-04-21T08:09:29.212Z,4.10
2023-04-21T08:12:53.143Z,4.30
2023-04-21T08:16:17.288Z,4.50
2023-04-21T08:19:41.720Z,4.20
2023-04-21T08:23:05.825Z,4.00
2023-04-21T08:26:30.248Z,4.00
2023-04-21T08:29:54.180Z,4.10
2023-04-21T08:33:18.035Z,4.50
2023-04-21T08:36:42.914Z,3.90
2023-04-21T08:40:07.597Z,3.60
2023-04-21T08:43:31.483Z,4.80
2023-04-21T08:46:57.744Z,4.20
2023-04-21T08:50:23.712Z,3.50
2023-04-21T08:53:47.641Z,3.30
2023-04-21T08:57:15.984Z,3.30
2023-04-21T09:00:41.541Z,4.70
2023-04-21T09:07:42.284Z,3.70
2023-04-21T09:11:06.712Z,3.50
2023-04-21T09:14:33.956Z,3.80
2023-04-21T09:17:58.255Z,3.70
2023-04-21T09:21:31.419Z,3.70
2023-04-21T09:25:00.838Z,3.90
2023-04-21T09:28:24.786Z,4.10
2023-04-21T09:31:48.619Z,3.70
2023-04-21T09:35:12.851Z,3.70
2023-04-21T09:38:36.672Z,3.80
2023-04-21T09:42:01.891Z,3.20
2023-04-21T09:45:39.030Z,3.40
2023-04-21T09:49:04.807Z,3.30
2023-04-21T09:52:30.321Z,3.50
2023-04-21T09:59:26.152Z,4.30
2023-04-21T10:02:51.620Z,3.50
2023-04-21T10:06:16.963Z,3.80
2023-04-21T10:09:51.802Z,3.80
2023-04-21T10:13:18.864Z,3.40
2023-04-21T10:16:43.994Z,4.00
2023-04-21T10:20:10.270Z,3.40
2023-04-21T10:23:41.163Z,3.30
2023-04-21T10:27:05.210Z,3.20
2023-04-21T10:30:29.122Z,3.20
2023-04-21T10:34:08.473Z,3.70
2023-04-21T10:37:32.656Z,3.80
2023-04-21T10:41:27.155Z,3.50
2023-04-21T10:44:59.928Z,4.00
2023-04-21T10:48:23.891Z,3.80
2023-04-21T10:52:00.192Z,3.90
2023-04-21T10:55:27.704Z,4.60
2023-04-21T10:58:52.661Z,3.80
2023-04-21T11:02:18.390Z,3.60
2023-04-21T11:05:42.981Z,3.60
2023-04-21T11:09:07.050Z,4.00
2023-04-21T11:12:40.222Z,3.90
2023-04-21T11:16:07.523Z,3.90
2023-04-21T11:19:34.287Z,3.70
2023-04-21T11:23:00.754Z,3.70
2023-04-21T11:26:32.957Z,3.90
2023-04-21T11:29:57.343Z,4.20
2023-04-21T11:33:21.440Z,3.70
2023-04-21T11:36:46.546Z,3.70
2023-04-21T11:40:11.187Z,4.00
2023-04-21T11:43:35.111Z,3.90
2023-04-21T11:46:59.191Z,3.80
2023-04-21T11:50:34.399Z,4.20
2023-04-21T11:54:00.878Z,4.10
2023-04-21T11:57:26.574Z,4.10
2023-04-21T12:00:54.314Z,4.20
2023-04-21T12:04:21.696Z,3.90
2023-04-21T12:07:49.337Z,4.30
2023-04-21T12:11:13.378Z,4.10
2023-04-21T12:14:37.363Z,4.00
2023-04-21T12:18:01.326Z,3.60
2023-04-21T12:21:31.493Z,4.10
2023-04-21T12:24:55.453Z,4.40
2023-04-21T12:28:19.538Z,5.10
2023-04-21T12:31:43.461Z,5.00
2023-04-21T12:35:08.182Z,4.10
2023-04-21T12:38:32.810Z,4.70
2023-04-21T12:41:57.925Z,5.10
2023-04-21T12:45:21.918Z,4.40
2023-04-21T12:48:45.849Z,4.50
2023-04-21T12:52:09.989Z,4.70
2023-04-21T12:55:37.155Z,5.10
2023-04-21T12:59:01.161Z,4.90
2023-04-21T13:02:25.100Z,5.40
2023-04-21T13:05:49.743Z,5.00
2023-04-21T13:09:13.621Z,5.00
2023-04-21T13:12:37.541Z,4.40
2023-04-21T13:16:01.489Z,4.80
2023-04-21T13:19:25.911Z,5.10
2023-04-21T13:22:50.032Z,4.80
2023-04-21T13:26:13.878Z,5.90
2023-04-21T13:29:37.834Z,5.50
2023-04-21T13:33:21.932Z,5.40
2023-04-21T13:37:22.975Z,5.00
2023-04-21T13:41:20.873Z,4.90
2023-04-21T13:45:18.922Z,4.90
2023-04-21T13:49:17.004Z,4.60
2023-04-21T13:53:14.891Z,4.80
2023-04-21T13:57:14.008Z,4.80
2023-04-21T14:01:12.120Z,5.00
2023-04-21T14:05:10.222Z,4.60
2023-04-21T14:09:07.917Z,5.20
2023-04-21T14:13:05.925Z,5.40
2023-04-21T14:17:03.842Z,5.10
2023-04-21T14:21:02.112Z,5.10
2023-04-21T14:24:59.962Z,5.10
2023-04-21T14:28:57.889Z,4.80
2023-04-21T14:32:55.896Z,5.30
2023-04-21T14:36:56.985Z,5.10
2023-04-21T14:40:55.873Z,5.10
2023-04-21T14:44:53.955Z,4.50
2023-04-21T14:48:51.956Z,4.90
2023-04-21T14:52:49.864Z,4.90
2023-04-21T14:56:48.822Z,5.30
2023-04-21T15:00:47.956Z,4.90
2023-04-21T15:04:45.973Z,5.60
2023-04-21T15:08:46.310Z,5.20
2023-04-21T15:12:45.833Z,4.60
2023-04-21T15:16:43.951Z,4.70
2023-04-21T15:20:45.370Z,4.50
2023-04-21T15:24:43.930Z,4.30
2023-04-21T15:28:48.792Z,4.60
2023-04-21T15:32:46.928Z,4.50
2023-04-21T15:36:44.784Z,4.70
2023-04-21T15:40:59.152Z,4.30
2023-04-21T15:44:57.775Z,4.80
2023-04-21T15:48:55.819Z,3.90
2023-04-21T15:52:53.886Z,3.80
2023-04-21T15:56:51.789Z,4.10
2023-04-21T16:00:49.792Z,3.70
2023-04-21T16:04:48.077Z,3.50
2023-04-21T16:08:45.871Z,3.90
2023-04-21T16:12:43.768Z,4.30
2023-04-21T16:16:42.845Z,3.80
2023-04-21T16:20:40.896Z,4.10
2023-04-21T16:24:39.300Z,4.40
2023-04-21T16:28:38.854Z,3.90
2023-04-21T16:32:37.984Z,4.10
2023-04-21T16:36:35.829Z,4.70
2023-04-21T16:40:36.072Z,4.90
2023-04-21T16:44:33.712Z,5.50
2023-04-21T16:48:32.840Z,6.20
2023-04-21T16:52:30.825Z,7.70
2023-04-21T16:56:28.704Z,6.30
2023-04-21T17:00:26.804Z,5.70
2023-04-21T17:04:24.687Z,5.10
2023-04-21T17:08:22.768Z,5.90
2023-04-21T17:12:20.700Z,4.80
2023-04-21T17:16:18.708Z,5.40
2023-04-21T17:20:16.794Z,5.10
2023-04-21T17:24:14.673Z,5.70
2023-04-21T17:28:12.637Z,5.40
2023-04-21T17:32:10.879Z,7.20
2023-04-21T17:36:08.588Z,6.70
2023-04-21T17:40:08.721Z,5.90
2023-04-21T17:44:07.707Z,6.90
2023-04-21T17:48:05.750Z,7.30
2023-04-21T17:52:03.633Z,6.90
2023-04-21T17:56:02.696Z,8.20
2023-04-21T18:00:00.600Z,7.50
2023-04-21T18:04:01.980Z,6.80
2023-04-21T18:07:59.696Z,7.80
2023-04-21T18:11:57.719Z,7.60
2023-04-21T18:15:55.880Z,9.80
2023-04-21T18:19:53.534Z,7.90
2023-04-21T18:23:52.639Z,10.20
2023-04-21T18:27:50.616Z,13.60
2023-04-21T18:31:48.606Z,17.40
2023-04-21T18:35:46.686Z,15.00
2023-04-21T18:39:44.574Z,11.80
2023-04-21T18:43:43.611Z,10.80
2023-04-21T18:47:41.610Z,12.50
2023-04-21T18:51:39.647Z,13.10
2023-04-21T18:55:37.652Z,12.00
2023-04-21T18:59:35.568Z,10.50
2023-04-21T19:03:33.638Z,11.10
2023-04-21T19:07:31.578Z,11.50
2023-04-21T19:11:29.628Z,10.60
2023-04-21T19:15:27.561Z,10.60
2023-04-21T19:19:25.588Z,11.30
2023-04-21T19:23:25.708Z,12.40
2023-04-21T19:27:23.585Z,12.80
2023-04-21T19:31:22.609Z,17.30
2023-04-21T19:35:21.524Z,12.60
2023-04-21T19:39:19.571Z,20.10
2023-04-21T19:43:17.494Z,15.90
2023-04-21T19:47:15.587Z,20.60
2023-04-21T19:51:14.529Z,18.30
2023-04-21T19:55:12.515Z,17.50
2023-04-21T19:59:11.568Z,19.30
2023-04-21T20:03:11.679Z,23.20
2023-04-21T20:07:09.479Z,24.30
2023-04-21T20:11:07.512Z,22.70
2023-04-21T20:15:05.565Z,20.30
2023-04-21T20:19:04.470Z,22.20
2023-04-21T20:23:03.438Z,23.90
2023-04-21T20:27:01.461Z,19.80
2023-04-21T20:30:59.565Z,16.60
2023-04-21T20:34:58.501Z,16.00
2023-04-21T20:38:57.399Z,14.90
2023-04-21T20:42:58.495Z,20.50
2023-04-21T20:46:56.499Z,20.80
2023-04-21T20:50:54.461Z,26.20
2023-04-21T20:54:52.423Z,24.70
2023-04-21T20:58:52.655Z,21.30
2023-04-21T21:02:50.628Z,16.90
2023-04-21T21:06:48.423Z,15.50
2023-04-21T21:10:48.480Z,16.10
2023-04-21T21:14:47.405Z,17.50
2023-04-21T21:18:45.423Z,19.00
2023-04-21T21:22:43.368Z,21.50
2023-04-21T21:26:42.855Z,22.90
2023-04-21T21:30:40.482Z,23.40
2023-04-21T21:34:38.358Z,23.20
2023-04-21T21:38:38.626Z,25.10
2023-04-21T21:42:36.355Z,19.70
2023-04-21T21:46:34.484Z,26.20
2023-04-21T21:50:32.423Z,24.60
2023-04-21T21:54:30.396Z,25.60
2023-04-21T21:58:28.480Z,24.90
2023-04-21T22:02:26.400Z,24.00
2023-04-21T22:06:24.397Z,22.80
2023-04-21T22:10:23.438Z,25.20
2023-04-21T22:14:23.640Z,24.70
2023-04-21T22:18:21.346Z,25.30
2023-04-21T22:22:19.327Z,25.40
2023-04-21T22:26:17.405Z,24.80
2023-04-21T22:30:15.394Z,23.90
2023-04-21T22:34:13.358Z,24.70
2023-04-21T22:38:11.253Z,23.50
2023-04-21T22:42:09.275Z,22.30
2023-04-21T22:46:08.332Z,22.20
2023-04-21T22:50:06.402Z,21.10
2023-04-21T22:54:04.396Z,22.90
2023-04-21T22:58:02.357Z,22.40
2023-04-21T23:02:00.437Z,23.70
2023-04-21T23:05:58.328Z,22.40
2023-04-21T23:09:56.228Z,22.60
2023-04-21T23:13:54.274Z,22.90
2023-04-21T23:17:52.322Z,23.80
2023-04-21T23:21:50.235Z,22.30
2023-04-21T23:25:48.212Z,22.90
2023-04-21T23:29:46.294Z,22.40
2023-04-21T23:33:44.183Z,23.00
2023-04-21T23:37:42.250Z,23.10
2023-04-21T23:41:40.263Z,21.50
2023-04-21T23:45:38.257Z,24.10
2023-04-21T23:49:36.382Z,22.60
2023-04-21T23:53:34.217Z,21.50
2023-04-21T23:57:32.174Z,22.60
